sensor_id;sensor_type;location;lat;lon;timestamp;P1;durP1;ratioP1;P2;durP2;ratioP2
4808;SDS011;2418;49.930;8.606;2023-07-22T00:01:25;5.70;;;4.50;;
4808;SDS011;2418;49.930;8.606;2023-07-22T00:03:51;4.80;;;4.50;;
4808;SDS011;2418;49.930;8.606;2023-07-22T00:06:17;5.25;;;4.75;;
4808;SDS011;2418;49.930;8.606;2023-07-22T00:08:43;4.80;;;4.40;;
4808;SDS011;2418;49.930;8.606;2023-07-22T00:11:09;4.03;;;3.72;;
4808;SDS011;2418;49.930;8.606;2023-07-22T00:13:35;4.28;;;4.07;;
4808;SDS011;2418;49.930;8.606;2023-07-22T00:16:02;4.70;;;4.40;;
4808;SDS011;2418;49.930;8.606;2023-07-22T00:18:33;5.30;;;5.00;;
4808;SDS011;2418;49.930;8.606;2023-07-22T00:20:59;4.80;;;4.60;;
4808;SDS011;2418;49.930;8.606;2023-07-22T00:23:25;4.50;;;4.30;;
4808;SDS011;2418;49.930;8.606;2023-07-22T00:25:51;5.20;;;4.70;;
4808;SDS011;2418;49.930;8.606;2023-07-22T00:28:17;4.10;;;3.90;;
4808;SDS011;2418;49.930;8.606;2023-07-22T00:30:43;4.87;;;4.57;;
4808;SDS011;2418;49.930;8.606;2023-07-22T00:33:09;4.43;;;4.22;;
4808;SDS011;2418;49.930;8.606;2023-07-22T00:35:35;5.70;;;4.55;;
4808;SDS011;2418;49.930;8.606;2023-07-22T00:38:01;4.50;;;4.30;;
4808;SDS011;2418;49.930;8.606;2023-07-22T00:40:28;5.30;;;4.90;;
4808;SDS011;2418;49.930;8.606;2023-07-22T00:42:58;4.93;;;4.63;;
4808;SDS011;2418;49.930;8.606;2023-07-22T00:45:27;6.07;;;5.30;;
4808;SDS011;2418;49.930;8.606;2023-07-22T00:47:53;5.43;;;5.03;;
4808;SDS011;2418;49.930;8.606;2023-07-22T00:50:19;4.72;;;4.43;;
4808;SDS011;2418;49.930;8.606;2023-07-22T00:52:45;4.95;;;4.55;;
4808;SDS011;2418;49.930;8.606;2023-07-22T00:55:11;5.13;;;4.82;;
4808;SDS011;2418;49.930;8.606;2023-07-22T00:57:37;4.68;;;4.47;;
4808;SDS011;2418;49.930;8.606;2023-07-22T01:00:03;5.13;;;4.72;;
4808;SDS011;2418;49.930;8.606;2023-07-22T01:02:30;4.53;;;4.43;;
4808;SDS011;2418;49.930;8.606;2023-07-22T01:04:56;5.03;;;4.73;;
4808;SDS011;2418;49.930;8.606;2023-07-22T01:07:22;4.75;;;4.45;;
4808;SDS011;2418;49.930;8.606;2023-07-22T01:09:48;5.15;;;4.70;;
4808;SDS011;2418;49.930;8.606;2023-07-22T01:12:14;4.47;;;4.10;;
4808;SDS011;2418;49.930;8.606;2023-07-22T01:14:41;5.30;;;4.90;;
4808;SDS011;2418;49.930;8.606;2023-07-22T01:17:08;4.80;;;4.60;;
4808;SDS011;2418;49.930;8.606;2023-07-22T01:19:35;7.30;;;4.85;;
4808;SDS011;2418;49.930;8.606;2023-07-22T01:22:02;4.78;;;4.32;;
4808;SDS011;2418;49.930;8.606;2023-07-22T01:24:28;4.90;;;4.30;;
4808;SDS011;2418;49.930;8.606;2023-07-22T01:26:54;6.10;;;4.70;;
4808;SDS011;2418;49.930;8.606;2023-07-22T01:29:21;4.88;;;4.68;;
4808;SDS011;2418;49.930;8.606;2023-07-22T01:31:49;4.90;;;4.60;;
4808;SDS011;2418;49.930;8.606;2023-07-22T01:34:15;35.80;;;5.70;;
4808;SDS011;2418;49.930;8.606;2023-07-22T01:36:41;4.35;;;4.25;;
4808;SDS011;2418;49.930;8.606;2023-07-22T01:39:08;4.80;;;4.50;;
4808;SDS011;2418;49.930;8.606;2023-07-22T01:41:35;5.30;;;4.90;;
4808;SDS011;2418;49.930;8.606;2023-07-22T01:44:01;5.05;;;4.55;;
4808;SDS011;2418;49.930;8.606;2023-07-22T01:46:27;4.65;;;4.35;;
4808;SDS011;2418;49.930;8.606;2023-07-22T01:48:54;5.00;;;4.60;;
4808;SDS011;2418;49.930;8.606;2023-07-22T01:51:20;5.20;;;4.90;;
4808;SDS011;2418;49.930;8.606;2023-07-22T01:53:46;7.47;;;4.63;;
4808;SDS011;2418;49.930;8.606;2023-07-22T01:56:12;5.25;;;4.95;;
4808;SDS011;2418;49.930;8.606;2023-07-22T01:58:38;4.70;;;4.40;;
4808;SDS011;2418;49.930;8.606;2023-07-22T02:01:04;5.57;;;4.87;;
4808;SDS011;2418;49.930;8.606;2023-07-22T02:03:31;6.43;;;5.15;;
4808;SDS011;2418;49.930;8.606;2023-07-22T02:06:03;5.20;;;4.90;;
4808;SDS011;2418;49.930;8.606;2023-07-22T02:08:29;5.40;;;5.00;;
4808;SDS011;2418;49.930;8.606;2023-07-22T02:11:02;5.20;;;4.80;;
4808;SDS011;2418;49.930;8.606;2023-07-22T02:13:29;4.90;;;4.63;;
4808;SDS011;2418;49.930;8.606;2023-07-22T02:15:55;4.93;;;4.53;;
4808;SDS011;2418;49.930;8.606;2023-07-22T02:18:21;5.30;;;5.00;;
4808;SDS011;2418;49.930;8.606;2023-07-22T02:20:47;4.85;;;4.45;;
4808;SDS011;2418;49.930;8.606;2023-07-22T02:23:13;5.70;;;4.50;;
4808;SDS011;2418;49.930;8.606;2023-07-22T02:25:39;7.00;;;5.27;;
4808;SDS011;2418;49.930;8.606;2023-07-22T02:28:05;5.50;;;5.20;;
4808;SDS011;2418;49.930;8.606;2023-07-22T02:30:33;6.00;;;4.93;;
4808;SDS011;2418;49.930;8.606;2023-07-22T02:33:00;5.15;;;4.80;;
4808;SDS011;2418;49.930;8.606;2023-07-22T02:35:26;5.80;;;5.40;;
4808;SDS011;2418;49.930;8.606;2023-07-22T02:37:52;4.43;;;4.22;;
4808;SDS011;2418;49.930;8.606;2023-07-22T02:40:18;5.07;;;4.60;;
4808;SDS011;2418;49.930;8.606;2023-07-22T02:42:44;4.97;;;4.68;;
4808;SDS011;2418;49.930;8.606;2023-07-22T02:45:10;4.60;;;4.40;;
4808;SDS011;2418;49.930;8.606;2023-07-22T02:47:36;5.30;;;5.00;;
4808;SDS011;2418;49.930;8.606;2023-07-22T02:50:02;5.00;;;4.70;;
4808;SDS011;2418;49.930;8.606;2023-07-22T02:52:31;5.13;;;4.93;;
4808;SDS011;2418;49.930;8.606;2023-07-22T02:55:04;5.20;;;4.80;;
4808;SDS011;2418;49.930;8.606;2023-07-22T02:57:30;5.80;;;5.40;;
4808;SDS011;2418;49.930;8.606;2023-07-22T02:59:56;6.30;;;5.70;;
4808;SDS011;2418;49.930;8.606;2023-07-22T03:02:22;4.68;;;4.47;;
4808;SDS011;2418;49.930;8.606;2023-07-22T03:04:48;5.35;;;4.95;;
4808;SDS011;2418;49.930;8.606;2023-07-22T03:07:14;4.60;;;4.30;;
4808;SDS011;2418;49.930;8.606;2023-07-22T03:09:40;5.40;;;5.10;;
4808;SDS011;2418;49.930;8.606;2023-07-22T03:12:06;5.38;;;4.43;;
4808;SDS011;2418;49.930;8.606;2023-07-22T03:14:33;7.25;;;4.80;;
4808;SDS011;2418;49.930;8.606;2023-07-22T03:17:01;5.53;;;5.13;;
4808;SDS011;2418;49.930;8.606;2023-07-22T03:19:28;6.70;;;4.80;;
4808;SDS011;2418;49.930;8.606;2023-07-22T03:21:54;5.30;;;4.90;;
4808;SDS011;2418;49.930;8.606;2023-07-22T03:24:20;5.72;;;5.22;;
4808;SDS011;2418;49.930;8.606;2023-07-22T03:26:46;5.97;;;5.40;;
4808;SDS011;2418;49.930;8.606;2023-07-22T03:29:11;5.50;;;5.20;;
4808;SDS011;2418;49.930;8.606;2023-07-22T03:31:37;6.50;;;6.00;;
4808;SDS011;2418;49.930;8.606;2023-07-22T03:34:04;5.25;;;5.00;;
4808;SDS011;2418;49.930;8.606;2023-07-22T03:36:29;5.10;;;4.70;;
4808;SDS011;2418;49.930;8.606;2023-07-22T03:38:58;5.40;;;5.00;;
4808;SDS011;2418;49.930;8.606;2023-07-22T03:41:25;5.97;;;5.50;;
4808;SDS011;2418;49.930;8.606;2023-07-22T03:43:50;5.87;;;5.37;;
4808;SDS011;2418;49.930;8.606;2023-07-22T03:46:16;5.25;;;4.95;;
4808;SDS011;2418;49.930;8.606;2023-07-22T03:48:42;5.20;;;5.00;;
4808;SDS011;2418;49.930;8.606;2023-07-22T03:51:08;5.40;;;5.10;;
4808;SDS011;2418;49.930;8.606;2023-07-22T03:53:34;5.57;;;5.07;;
4808;SDS011;2418;49.930;8.606;2023-07-22T03:56:00;6.38;;;4.90;;
4808;SDS011;2418;49.930;8.606;2023-07-22T03:58:26;5.45;;;5.05;;
4808;SDS011;2418;49.930;8.606;2023-07-22T04:00:52;5.68;;;5.20;;
4808;SDS011;2418;49.930;8.606;2023-07-22T04:03:18;5.20;;;4.90;;
4808;SDS011;2418;49.930;8.606;2023-07-22T04:05:44;5.20;;;4.97;;
4808;SDS011;2418;49.930;8.606;2023-07-22T04:08:18;5.32;;;5.00;;
4808;SDS011;2418;49.930;8.606;2023-07-22T04:10:50;5.35;;;5.05;;
4808;SDS011;2418;49.930;8.606;2023-07-22T04:13:16;5.57;;;5.23;;
4808;SDS011;2418;49.930;8.606;2023-07-22T04:15:42;4.70;;;4.50;;
4808;SDS011;2418;49.930;8.606;2023-07-22T04:18:09;4.00;;;3.70;;
4808;SDS011;2418;49.930;8.606;2023-07-22T04:20:35;4.50;;;4.10;;
4808;SDS011;2418;49.930;8.606;2023-07-22T04:23:00;4.30;;;4.10;;
4808;SDS011;2418;49.930;8.606;2023-07-22T04:25:26;3.75;;;3.65;;
4808;SDS011;2418;49.930;8.606;2023-07-22T04:27:52;4.00;;;3.80;;
4808;SDS011;2418;49.930;8.606;2023-07-22T04:30:18;4.10;;;3.70;;
4808;SDS011;2418;49.930;8.606;2023-07-22T04:32:49;5.03;;;3.92;;
4808;SDS011;2418;49.930;8.606;2023-07-22T04:35:15;4.30;;;4.10;;
4808;SDS011;2418;49.930;8.606;2023-07-22T04:37:42;3.58;;;3.47;;
4808;SDS011;2418;49.930;8.606;2023-07-22T04:40:10;3.43;;;3.33;;
4808;SDS011;2418;49.930;8.606;2023-07-22T04:42:39;3.20;;;3.10;;
4808;SDS011;2418;49.930;8.606;2023-07-22T04:45:05;4.57;;;4.28;;
4808;SDS011;2418;49.930;8.606;2023-07-22T04:47:31;4.20;;;3.80;;
4808;SDS011;2418;49.930;8.606;2023-07-22T04:49:57;3.30;;;2.90;;
4808;SDS011;2418;49.930;8.606;2023-07-22T04:52:23;3.05;;;2.95;;
4808;SDS011;2418;49.930;8.606;2023-07-22T04:54:49;3.08;;;2.97;;
4808;SDS011;2418;49.930;8.606;2023-07-22T04:57:15;3.20;;;3.10;;
4808;SDS011;2418;49.930;8.606;2023-07-22T04:59:42;3.13;;;3.03;;
4808;SDS011;2418;49.930;8.606;2023-07-22T05:02:08;3.70;;;2.90;;
4808;SDS011;2418;49.930;8.606;2023-07-22T05:04:34;6.10;;;3.05;;
4808;SDS011;2418;49.930;8.606;2023-07-22T05:07:00;3.42;;;3.22;;
4808;SDS011;2418;49.930;8.606;2023-07-22T05:09:26;3.70;;;3.10;;
4808;SDS011;2418;49.930;8.606;2023-07-22T05:11:51;3.40;;;3.30;;
4808;SDS011;2418;49.930;8.606;2023-07-22T05:14:17;3.60;;;3.30;;
4808;SDS011;2418;49.930;8.606;2023-07-22T05:16:43;3.10;;;3.00;;
4808;SDS011;2418;49.930;8.606;2023-07-22T05:19:09;3.50;;;3.20;;
4808;SDS011;2418;49.930;8.606;2023-07-22T05:21:35;3.40;;;3.20;;
4808;SDS011;2418;49.930;8.606;2023-07-22T05:24:01;3.70;;;3.40;;
4808;SDS011;2418;49.930;8.606;2023-07-22T05:26:27;3.20;;;3.10;;
4808;SDS011;2418;49.930;8.606;2023-07-22T05:28:53;5.60;;;3.10;;
4808;SDS011;2418;49.930;8.606;2023-07-22T05:31:19;5.32;;;3.30;;
4808;SDS011;2418;49.930;8.606;2023-07-22T05:33:45;7.03;;;3.10;;
4808;SDS011;2418;49.930;8.606;2023-07-22T05:36:12;3.95;;;3.33;;
4808;SDS011;2418;49.930;8.606;2023-07-22T05:38:38;2.88;;;2.78;;
4808;SDS011;2418;49.930;8.606;2023-07-22T05:41:04;3.58;;;3.28;;
4808;SDS011;2418;49.930;8.606;2023-07-22T05:43:30;3.53;;;3.33;;
4808;SDS011;2418;49.930;8.606;2023-07-22T05:45:55;3.23;;;2.97;;
4808;SDS011;2418;49.930;8.606;2023-07-22T05:48:21;3.40;;;3.10;;
4808;SDS011;2418;49.930;8.606;2023-07-22T05:50:47;3.57;;;2.43;;
4808;SDS011;2418;49.930;8.606;2023-07-22T05:53:13;2.70;;;2.60;;
4808;SDS011;2418;49.930;8.606;2023-07-22T05:55:39;3.17;;;2.97;;
4808;SDS011;2418;49.930;8.606;2023-07-22T05:58:05;3.33;;;3.13;;
4808;SDS011;2418;49.930;8.606;2023-07-22T06:00:35;3.08;;;2.88;;
4808;SDS011;2418;49.930;8.606;2023-07-22T06:03:01;3.67;;;3.38;;
4808;SDS011;2418;49.930;8.606;2023-07-22T06:05:27;3.78;;;3.13;;
4808;SDS011;2418;49.930;8.606;2023-07-22T06:07:53;3.72;;;3.45;;
4808;SDS011;2418;49.930;8.606;2023-07-22T06:10:19;3.28;;;3.17;;
4808;SDS011;2418;49.930;8.606;2023-07-22T06:12:45;4.40;;;3.80;;
4808;SDS011;2418;49.930;8.606;2023-07-22T06:15:12;4.30;;;3.90;;
4808;SDS011;2418;49.930;8.606;2023-07-22T06:17:38;4.45;;;3.70;;
4808;SDS011;2418;49.930;8.606;2023-07-22T06:20:04;4.45;;;4.15;;
4808;SDS011;2418;49.930;8.606;2023-07-22T06:22:30;4.03;;;3.83;;
4808;SDS011;2418;49.930;8.606;2023-07-22T06:24:56;4.28;;;4.07;;
4808;SDS011;2418;49.930;8.606;2023-07-22T06:27:22;4.13;;;3.88;;
4808;SDS011;2418;49.930;8.606;2023-07-22T06:29:48;4.05;;;3.95;;
4808;SDS011;2418;49.930;8.606;2023-07-22T06:32:14;11.40;;;4.47;;
4808;SDS011;2418;49.930;8.606;2023-07-22T06:34:40;4.60;;;4.30;;
4808;SDS011;2418;49.930;8.606;2023-07-22T06:37:06;4.97;;;4.57;;
4808;SDS011;2418;49.930;8.606;2023-07-22T06:39:32;4.70;;;4.40;;
4808;SDS011;2418;49.930;8.606;2023-07-22T06:41:58;4.25;;;4.05;;
4808;SDS011;2418;49.930;8.606;2023-07-22T06:44:24;4.85;;;4.55;;
4808;SDS011;2418;49.930;8.606;2023-07-22T06:46:50;3.80;;;3.70;;
4808;SDS011;2418;49.930;8.606;2023-07-22T06:49:15;6.10;;;4.20;;
4808;SDS011;2418;49.930;8.606;2023-07-22T06:51:41;3.90;;;3.70;;
4808;SDS011;2418;49.930;8.606;2023-07-22T06:54:07;4.03;;;3.83;;
4808;SDS011;2418;49.930;8.606;2023-07-22T06:56:33;4.10;;;3.90;;
4808;SDS011;2418;49.930;8.606;2023-07-22T06:58:59;4.60;;;4.28;;
4808;SDS011;2418;49.930;8.606;2023-07-22T07:01:25;4.70;;;4.50;;
4808;SDS011;2418;49.930;8.606;2023-07-22T07:03:51;4.25;;;4.05;;
4808;SDS011;2418;49.930;8.606;2023-07-22T07:06:17;5.15;;;4.60;;
4808;SDS011;2418;49.930;8.606;2023-07-22T07:08:43;5.00;;;4.50;;
4808;SDS011;2418;49.930;8.606;2023-07-22T07:11:09;4.23;;;4.03;;
4808;SDS011;2418;49.930;8.606;2023-07-22T07:13:35;4.75;;;4.35;;
4808;SDS011;2418;49.930;8.606;2023-07-22T07:16:20;3.90;;;3.70;;
4808;SDS011;2418;49.930;8.606;2023-07-22T07:18:47;4.07;;;3.88;;
4808;SDS011;2418;49.930;8.606;2023-07-22T07:21:13;4.13;;;3.83;;
4808;SDS011;2418;49.930;8.606;2023-07-22T07:23:39;4.10;;;3.90;;
4808;SDS011;2418;49.930;8.606;2023-07-22T07:26:05;3.70;;;3.60;;
4808;SDS011;2418;49.930;8.606;2023-07-22T07:28:31;4.30;;;4.10;;
4808;SDS011;2418;49.930;8.606;2023-07-22T07:30:57;5.53;;;4.25;;
4808;SDS011;2418;49.930;8.606;2023-07-22T07:33:23;4.00;;;3.70;;
4808;SDS011;2418;49.930;8.606;2023-07-22T07:35:49;4.07;;;3.88;;
4808;SDS011;2418;49.930;8.606;2023-07-22T07:38:15;4.20;;;4.10;;
4808;SDS011;2418;49.930;8.606;2023-07-22T07:40:41;4.80;;;4.40;;
4808;SDS011;2418;49.930;8.606;2023-07-22T07:43:07;4.80;;;4.30;;
4808;SDS011;2418;49.930;8.606;2023-07-22T07:45:34;4.47;;;4.18;;
4808;SDS011;2418;49.930;8.606;2023-07-22T07:47:59;4.80;;;4.43;;
4808;SDS011;2418;49.930;8.606;2023-07-22T07:50:25;4.10;;;3.80;;
4808;SDS011;2418;49.930;8.606;2023-07-22T07:52:52;4.10;;;3.90;;
4808;SDS011;2418;49.930;8.606;2023-07-22T07:55:18;3.85;;;3.60;;
4808;SDS011;2418;49.930;8.606;2023-07-22T07:57:44;4.00;;;3.70;;
4808;SDS011;2418;49.930;8.606;2023-07-22T08:00:09;3.70;;;3.60;;
4808;SDS011;2418;49.930;8.606;2023-07-22T08:02:35;4.20;;;3.90;;
4808;SDS011;2418;49.930;8.606;2023-07-22T08:05:01;2.88;;;2.88;;
4808;SDS011;2418;49.930;8.606;2023-07-22T08:07:27;4.00;;;3.70;;
4808;SDS011;2418;49.930;8.606;2023-07-22T08:09:53;3.00;;;2.90;;
4808;SDS011;2418;49.930;8.606;2023-07-22T08:12:20;6.00;;;3.28;;
4808;SDS011;2418;49.930;8.606;2023-07-22T08:14:46;2.85;;;2.75;;
4808;SDS011;2418;49.930;8.606;2023-07-22T08:17:12;3.50;;;3.30;;
4808;SDS011;2418;49.930;8.606;2023-07-22T08:19:38;3.70;;;3.60;;
4808;SDS011;2418;49.930;8.606;2023-07-22T08:22:04;4.07;;;3.88;;
4808;SDS011;2418;49.930;8.606;2023-07-22T08:24:31;4.83;;;4.53;;
4808;SDS011;2418;49.930;8.606;2023-07-22T08:26:57;4.40;;;4.10;;
4808;SDS011;2418;49.930;8.606;2023-07-22T08:29:23;4.72;;;4.22;;
4808;SDS011;2418;49.930;8.606;2023-07-22T08:31:49;9.15;;;3.90;;
4808;SDS011;2418;49.930;8.606;2023-07-22T08:34:15;3.78;;;3.47;;
4808;SDS011;2418;49.930;8.606;2023-07-22T08:36:41;3.70;;;3.50;;
4808;SDS011;2418;49.930;8.606;2023-07-22T08:39:08;3.78;;;3.67;;
4808;SDS011;2418;49.930;8.606;2023-07-22T08:41:34;4.22;;;4.03;;
4808;SDS011;2418;49.930;8.606;2023-07-22T08:44:00;3.90;;;3.70;;
4808;SDS011;2418;49.930;8.606;2023-07-22T08:46:28;3.40;;;3.30;;
4808;SDS011;2418;49.930;8.606;2023-07-22T08:48:58;3.90;;;3.45;;
4808;SDS011;2418;49.930;8.606;2023-07-22T08:51:25;3.13;;;2.92;;
4808;SDS011;2418;49.930;8.606;2023-07-22T08:53:55;3.20;;;3.00;;
4808;SDS011;2418;49.930;8.606;2023-07-22T08:56:24;4.90;;;3.40;;
4808;SDS011;2418;49.930;8.606;2023-07-22T08:58:51;3.65;;;3.35;;
4808;SDS011;2418;49.930;8.606;2023-07-22T09:01:17;4.32;;;3.10;;
4808;SDS011;2418;49.930;8.606;2023-07-22T09:03:43;3.25;;;3.05;;
4808;SDS011;2418;49.930;8.606;2023-07-22T09:06:10;3.10;;;2.90;;
4808;SDS011;2418;49.930;8.606;2023-07-22T09:08:36;2.75;;;2.65;;
4808;SDS011;2418;49.930;8.606;2023-07-22T09:11:03;3.08;;;2.80;;
4808;SDS011;2418;49.930;8.606;2023-07-22T09:13:29;2.90;;;2.70;;
4808;SDS011;2418;49.930;8.606;2023-07-22T09:15:59;3.10;;;2.90;;
4808;SDS011;2418;49.930;8.606;2023-07-22T09:18:25;3.03;;;2.80;;
4808;SDS011;2418;49.930;8.606;2023-07-22T09:20:51;3.00;;;2.90;;
4808;SDS011;2418;49.930;8.606;2023-07-22T09:23:18;3.38;;;3.28;;
4808;SDS011;2418;49.930;8.606;2023-07-22T09:25:44;3.63;;;3.42;;
4808;SDS011;2418;49.930;8.606;2023-07-22T09:28:10;3.47;;;3.38;;
4808;SDS011;2418;49.930;8.606;2023-07-22T09:30:36;4.07;;;3.38;;
4808;SDS011;2418;49.930;8.606;2023-07-22T09:33:03;3.00;;;2.90;;
4808;SDS011;2418;49.930;8.606;2023-07-22T09:35:45;3.37;;;3.17;;
4808;SDS011;2418;49.930;8.606;2023-07-22T09:38:12;2.90;;;2.70;;
4808;SDS011;2418;49.930;8.606;2023-07-22T09:40:42;3.10;;;2.90;;
4808;SDS011;2418;49.930;8.606;2023-07-22T09:43:11;3.47;;;3.38;;
4808;SDS011;2418;49.930;8.606;2023-07-22T09:45:37;2.78;;;2.58;;
4808;SDS011;2418;49.930;8.606;2023-07-22T09:48:03;4.67;;;4.27;;
4808;SDS011;2418;49.930;8.606;2023-07-22T09:50:30;3.40;;;3.20;;
4808;SDS011;2418;49.930;8.606;2023-07-22T09:52:57;2.40;;;2.40;;
4808;SDS011;2418;49.930;8.606;2023-07-22T09:55:24;2.90;;;2.70;;
4808;SDS011;2418;49.930;8.606;2023-07-22T09:57:53;3.00;;;2.80;;
4808;SDS011;2418;49.930;8.606;2023-07-22T10:00:24;3.28;;;2.97;;
4808;SDS011;2418;49.930;8.606;2023-07-22T10:02:51;2.60;;;2.50;;
4808;SDS011;2418;49.930;8.606;2023-07-22T10:05:29;3.80;;;2.88;;
4808;SDS011;2418;49.930;8.606;2023-07-22T10:07:56;2.72;;;2.63;;
4808;SDS011;2418;49.930;8.606;2023-07-22T10:10:23;2.50;;;2.30;;
4808;SDS011;2418;49.930;8.606;2023-07-22T10:12:51;3.10;;;2.90;;
4808;SDS011;2418;49.930;8.606;2023-07-22T10:15:18;4.30;;;2.90;;
4808;SDS011;2418;49.930;8.606;2023-07-22T10:17:44;3.30;;;3.05;;
4808;SDS011;2418;49.930;8.606;2023-07-22T10:20:11;2.70;;;2.60;;
4808;SDS011;2418;49.930;8.606;2023-07-22T10:22:41;3.00;;;2.90;;
4808;SDS011;2418;49.930;8.606;2023-07-22T10:25:08;3.08;;;2.97;;
4808;SDS011;2418;49.930;8.606;2023-07-22T10:27:35;3.10;;;2.97;;
4808;SDS011;2418;49.930;8.606;2023-07-22T10:30:05;2.80;;;2.70;;
4808;SDS011;2418;49.930;8.606;2023-07-22T10:32:38;3.70;;;2.80;;
4808;SDS011;2418;49.930;8.606;2023-07-22T10:35:07;2.60;;;2.40;;
4808;SDS011;2418;49.930;8.606;2023-07-22T10:37:35;2.70;;;2.50;;
4808;SDS011;2418;49.930;8.606;2023-07-22T10:40:15;3.00;;;2.90;;
4808;SDS011;2418;49.930;8.606;2023-07-22T10:42:50;3.78;;;3.15;;
4808;SDS011;2418;49.930;8.606;2023-07-22T10:45:26;3.38;;;3.17;;
4808;SDS011;2418;49.930;8.606;2023-07-22T10:48:00;3.13;;;2.95;;
4808;SDS011;2418;49.930;8.606;2023-07-22T10:50:37;3.90;;;2.78;;
4808;SDS011;2418;49.930;8.606;2023-07-22T10:53:03;4.40;;;3.00;;
4808;SDS011;2418;49.930;8.606;2023-07-22T10:55:29;2.75;;;2.55;;
4808;SDS011;2418;49.930;8.606;2023-07-22T10:57:55;3.78;;;3.47;;
4808;SDS011;2418;49.930;8.606;2023-07-22T11:00:29;3.15;;;3.05;;
4808;SDS011;2418;49.930;8.606;2023-07-22T11:03:13;2.95;;;2.85;;
4808;SDS011;2418;49.930;8.606;2023-07-22T11:05:49;3.75;;;3.20;;
4808;SDS011;2418;49.930;8.606;2023-07-22T11:08:16;2.80;;;2.60;;
4808;SDS011;2418;49.930;8.606;2023-07-22T11:10:54;3.05;;;2.88;;
4808;SDS011;2418;49.930;8.606;2023-07-22T11:13:26;2.50;;;2.40;;
4808;SDS011;2418;49.930;8.606;2023-07-22T11:15:57;2.40;;;2.30;;
4808;SDS011;2418;49.930;8.606;2023-07-22T11:18:34;3.08;;;2.88;;
4808;SDS011;2418;49.930;8.606;2023-07-22T11:21:00;3.30;;;3.20;;
4808;SDS011;2418;49.930;8.606;2023-07-22T11:23:26;3.00;;;2.90;;
4808;SDS011;2418;49.930;8.606;2023-07-22T11:25:52;3.30;;;3.20;;
4808;SDS011;2418;49.930;8.606;2023-07-22T11:28:18;3.42;;;3.22;;
4808;SDS011;2418;49.930;8.606;2023-07-22T11:30:44;3.05;;;2.95;;
4808;SDS011;2418;49.930;8.606;2023-07-22T11:33:11;2.83;;;2.63;;
4808;SDS011;2418;49.930;8.606;2023-07-22T11:35:37;2.30;;;2.30;;
4808;SDS011;2418;49.930;8.606;2023-07-22T11:38:03;2.60;;;2.60;;
4808;SDS011;2418;49.930;8.606;2023-07-22T11:40:32;2.70;;;2.60;;
4808;SDS011;2418;49.930;8.606;2023-07-22T11:42:58;3.13;;;2.40;;
4808;SDS011;2418;49.930;8.606;2023-07-22T11:45:25;2.70;;;2.50;;
4808;SDS011;2418;49.930;8.606;2023-07-22T11:47:51;4.18;;;3.20;;
4808;SDS011;2418;49.930;8.606;2023-07-22T11:50:17;2.70;;;2.70;;
4808;SDS011;2418;49.930;8.606;2023-07-22T11:52:42;3.20;;;2.90;;
4808;SDS011;2418;49.930;8.606;2023-07-22T11:55:15;2.85;;;2.75;;
4808;SDS011;2418;49.930;8.606;2023-07-22T11:57:41;2.83;;;2.73;;
4808;SDS011;2418;49.930;8.606;2023-07-22T12:00:07;2.60;;;2.60;;
4808;SDS011;2418;49.930;8.606;2023-07-22T12:02:35;3.13;;;3.03;;
4808;SDS011;2418;49.930;8.606;2023-07-22T12:05:03;3.10;;;2.90;;
4808;SDS011;2418;49.930;8.606;2023-07-22T12:07:36;3.22;;;2.95;;
4808;SDS011;2418;49.930;8.606;2023-07-22T12:10:04;3.00;;;2.50;;
4808;SDS011;2418;49.930;8.606;2023-07-22T12:12:39;2.33;;;2.30;;
4808;SDS011;2418;49.930;8.606;2023-07-22T12:20:14;4.10;;;3.08;;
4808;SDS011;2418;49.930;8.606;2023-07-22T12:22:40;2.70;;;2.70;;
4808;SDS011;2418;49.930;8.606;2023-07-22T12:25:06;3.10;;;3.00;;
4808;SDS011;2418;49.930;8.606;2023-07-22T12:27:32;3.00;;;2.90;;
4808;SDS011;2418;49.930;8.606;2023-07-22T12:29:58;3.30;;;3.10;;
4808;SDS011;2418;49.930;8.606;2023-07-22T12:32:24;2.55;;;2.42;;
4808;SDS011;2418;49.930;8.606;2023-07-22T12:34:50;3.63;;;3.33;;
4808;SDS011;2418;49.930;8.606;2023-07-22T12:37:16;2.90;;;2.60;;
4808;SDS011;2418;49.930;8.606;2023-07-22T12:39:43;5.37;;;3.43;;
4808;SDS011;2418;49.930;8.606;2023-07-22T12:42:09;2.83;;;2.73;;
4808;SDS011;2418;49.930;8.606;2023-07-22T12:44:34;3.20;;;2.60;;
4808;SDS011;2418;49.930;8.606;2023-07-22T12:47:01;2.70;;;2.60;;
4808;SDS011;2418;49.930;8.606;2023-07-22T12:49:27;2.80;;;2.60;;
4808;SDS011;2418;49.930;8.606;2023-07-22T12:51:53;2.83;;;2.63;;
4808;SDS011;2418;49.930;8.606;2023-07-22T12:54:19;2.70;;;2.50;;
4808;SDS011;2418;49.930;8.606;2023-07-22T12:56:45;4.53;;;2.60;;
4808;SDS011;2418;49.930;8.606;2023-07-22T12:59:11;2.60;;;2.40;;
4808;SDS011;2418;49.930;8.606;2023-07-22T13:01:37;2.80;;;2.70;;
4808;SDS011;2418;49.930;8.606;2023-07-22T13:04:06;2.60;;;2.50;;
4808;SDS011;2418;49.930;8.606;2023-07-22T13:06:32;3.20;;;3.00;;
4808;SDS011;2418;49.930;8.606;2023-07-22T13:08:58;3.53;;;2.90;;
4808;SDS011;2418;49.930;8.606;2023-07-22T13:11:23;2.60;;;2.50;;
4808;SDS011;2418;49.930;8.606;2023-07-22T13:13:49;2.33;;;2.22;;
4808;SDS011;2418;49.930;8.606;2023-07-22T13:16:15;3.05;;;2.85;;
4808;SDS011;2418;49.930;8.606;2023-07-22T13:18:41;2.80;;;2.25;;
4808;SDS011;2418;49.930;8.606;2023-07-22T13:21:07;3.05;;;2.65;;
4808;SDS011;2418;49.930;8.606;2023-07-22T13:23:33;2.55;;;2.45;;
4808;SDS011;2418;49.930;8.606;2023-07-22T13:25:59;4.47;;;2.70;;
4808;SDS011;2418;49.930;8.606;2023-07-22T13:28:24;2.50;;;2.40;;
4808;SDS011;2418;49.930;8.606;2023-07-22T13:30:50;2.90;;;2.80;;
4808;SDS011;2418;49.930;8.606;2023-07-22T13:33:16;2.40;;;2.30;;
4808;SDS011;2418;49.930;8.606;2023-07-22T13:35:43;2.70;;;2.50;;
4808;SDS011;2418;49.930;8.606;2023-07-22T13:38:09;2.38;;;2.28;;
4808;SDS011;2418;49.930;8.606;2023-07-22T13:40:35;3.08;;;2.80;;
4808;SDS011;2418;49.930;8.606;2023-07-22T13:43:02;3.30;;;2.30;;
4808;SDS011;2418;49.930;8.606;2023-07-22T13:45:28;3.08;;;2.78;;
4808;SDS011;2418;49.930;8.606;2023-07-22T13:47:54;3.50;;;3.10;;
4808;SDS011;2418;49.930;8.606;2023-07-22T13:50:19;2.90;;;2.35;;
4808;SDS011;2418;49.930;8.606;2023-07-22T13:52:46;3.17;;;2.97;;
4808;SDS011;2418;49.930;8.606;2023-07-22T13:55:12;2.63;;;2.50;;
4808;SDS011;2418;49.930;8.606;2023-07-22T13:57:37;2.60;;;2.50;;
4808;SDS011;2418;49.930;8.606;2023-07-22T14:00:04;2.80;;;2.70;;
4808;SDS011;2418;49.930;8.606;2023-07-22T14:02:33;2.30;;;2.30;;
4808;SDS011;2418;49.930;8.606;2023-07-22T14:04:59;2.80;;;2.60;;
4808;SDS011;2418;49.930;8.606;2023-07-22T14:07:25;2.60;;;2.40;;
4808;SDS011;2418;49.930;8.606;2023-07-22T14:09:51;2.65;;;2.45;;
4808;SDS011;2418;49.930;8.606;2023-07-22T14:12:18;2.80;;;2.70;;
4808;SDS011;2418;49.930;8.606;2023-07-22T14:14:44;3.10;;;2.90;;
4808;SDS011;2418;49.930;8.606;2023-07-22T14:17:10;3.10;;;3.00;;
4808;SDS011;2418;49.930;8.606;2023-07-22T14:19:36;2.73;;;2.63;;
4808;SDS011;2418;49.930;8.606;2023-07-22T14:22:02;2.60;;;2.50;;
4808;SDS011;2418;49.930;8.606;2023-07-22T14:24:28;2.10;;;2.10;;
4808;SDS011;2418;49.930;8.606;2023-07-22T14:26:54;4.68;;;2.70;;
4808;SDS011;2418;49.930;8.606;2023-07-22T14:29:20;2.42;;;2.33;;
4808;SDS011;2418;49.930;8.606;2023-07-22T14:31:46;2.78;;;2.67;;
4808;SDS011;2418;49.930;8.606;2023-07-22T14:34:12;2.63;;;2.42;;
4808;SDS011;2418;49.930;8.606;2023-07-22T14:36:38;2.60;;;2.50;;
4808;SDS011;2418;49.930;8.606;2023-07-22T14:39:04;2.80;;;2.60;;
4808;SDS011;2418;49.930;8.606;2023-07-22T14:41:30;2.10;;;2.00;;
4808;SDS011;2418;49.930;8.606;2023-07-22T14:43:56;3.10;;;3.00;;
4808;SDS011;2418;49.930;8.606;2023-07-22T14:46:22;2.65;;;2.30;;
4808;SDS011;2418;49.930;8.606;2023-07-22T14:48:48;3.80;;;2.80;;
4808;SDS011;2418;49.930;8.606;2023-07-22T14:51:14;7.13;;;2.60;;
4808;SDS011;2418;49.930;8.606;2023-07-22T14:53:40;2.40;;;2.30;;
4808;SDS011;2418;49.930;8.606;2023-07-22T14:56:06;2.90;;;2.60;;
4808;SDS011;2418;49.930;8.606;2023-07-22T14:58:32;2.43;;;2.23;;
4808;SDS011;2418;49.930;8.606;2023-07-22T15:00:58;3.50;;;2.80;;
4808;SDS011;2418;49.930;8.606;2023-07-22T15:03:24;2.15;;;2.05;;
4808;SDS011;2418;49.930;8.606;2023-07-22T15:05:50;2.33;;;2.23;;
4808;SDS011;2418;49.930;8.606;2023-07-22T15:08:16;2.65;;;2.45;;
4808;SDS011;2418;49.930;8.606;2023-07-22T15:10:42;2.70;;;2.50;;
4808;SDS011;2418;49.930;8.606;2023-07-22T15:13:08;2.50;;;2.30;;
4808;SDS011;2418;49.930;8.606;2023-07-22T15:15:33;2.83;;;2.63;;
4808;SDS011;2418;49.930;8.606;2023-07-22T15:17:59;2.70;;;2.50;;